Observations for BREST GUIPAVAS, France (LFRB)

LFRB 242030Z AUTO 23012KT 9999 BKN009 OVC031 12/11 Q1016 TEMPO 2000 -RA OVC002  
LFRB 242000Z AUTO 24015KT 9999 BKN006 OVC013 12/12 Q1016 TEMPO 2000 -RA OVC002  
LFRB 241930Z AUTO 23012KT 5000 -RADZ BR OVC004 12/12 Q1016 TEMPO BKN005 
LFRB 241900Z AUTO 23012KT 8000 OVC003 12/11 Q1016 TEMPO 4000 -RA BKN005 
LFRB 241830Z AUTO 23012KT 3900 BR OVC003 12/11 Q1016 TEMPO BKN005   
LFRB 241800Z AUTO 22012KT 4300 DZ BR OVC004 11/11 Q1016 TEMPO NSW BKN005
LFRB 241730Z AUTO 22014KT 3700 BR OVC006 12/11 Q1016 NOSIG  
LFRB 241700Z AUTO 22014KT 3700 BR BKN007 OVC012 12/11 Q1016 TEMPO BKN012 OVC025 BECMG 9999 NSW  
LFRB 241630Z AUTO 22018KT 6000 -RA BKN011 OVC022 12/10 Q1016 BECMG OVC008   
LFRB 241600Z AUTO 22019KT 9999 BKN013 OVC024 13/10 Q1016 NOSIG  
LFRB 241530Z AUTO 22020KT 9999 BKN013 BKN019 OVC025 13/10 Q1017 NOSIG   
LFRB 241500Z AUTO 22020KT 9999 BKN013/// BKN018/// OVC026/// 13/10 Q1017 NOSIG  
LFRB 241430Z AUTO 22016KT 9999 BKN013 BKN018 OVC026 13/10 Q1017 NOSIG   
LFRB 241400Z AUTO 21017KT 9999 BKN013 BKN026 OVC032 13/10 Q1018 NOSIG   
LFRB 241330Z AUTO 20017KT 9999 FEW014 SCT026 OVC031 14/10 Q1018 BECMG BKN012 OVC025 
LFRB 241300Z AUTO 21019KT 9999 FEW015 OVC029 14/09 Q1018 BECMG BKN012 OVC025
LFRB 241230Z AUTO 20017KT 9999 BKN013 OVC031 14/10 Q1018 NOSIG  
LFRB 241200Z AUTO 21015KT 180V240 9999 BKN014 OVC032 13/10 Q1019 NOSIG  
LFRB 241130Z AUTO 22017KT 9999 FEW018 OVC031 13/09 Q1019 BECMG BKN012 OVC025
LFRB 241100Z AUTO 23015KT 9999 FEW020 OVC027 13/09 Q1019 NOSIG  
LFRB 241030Z AUTO 21012KT 9999 FEW015 OVC026 13/09 Q1019 NOSIG  
LFRB 241000Z AUTO 20014KT 9999 FEW014 OVC027 13/09 Q1019 NOSIG  
LFRB 240930Z AUTO 20013KT 9999 BKN014 OVC028 13/09 Q1019 BECMG BKN020   
LFRB 240900Z AUTO 20012KT 180V240 9999 BKN013 OVC026 13/10 Q1019 BECMG BKN020   
LFRB 240830Z AUTO 21013KT 9999 BKN011 OVC028 13/10 Q1019 BECMG BKN020   
LFRB 240800Z AUTO 21012KT 9999 BKN009 BKN014 OVC027 12/10 Q1020 BECMG BKN020
LFRB 240730Z AUTO 21011KT 9999 SCT009 OVC030 12/10 Q1020 TEMPO BKN004   
LFRB 240700Z AUTO 22011KT 9999 BKN010 BKN022 OVC032 12/10 Q1020 TEMPO BKN004
LFRB 240630Z AUTO 23011KT 9999 BKN010 BKN023 OVC034 11/10 Q1019 TEMPO BKN004
LFRB 240600Z AUTO 22010KT 9999 BKN010 BKN022 OVC034 11/10 Q1019 TEMPO BKN004
LFRB 240530Z AUTO 22009KT 9999 BKN008 OVC021 11/10 Q1019 TEMPO BKN004   
LFRB 240500Z AUTO 22009KT 8000 OVC008 10/10 Q1019 TEMPO BKN004  
LFRB 240430Z AUTO 23009KT 7000 OVC007 10/10 Q1019 TEMPO BKN004  
LFRB 240400Z AUTO 24009KT 9999 OVC009 11/09 Q1020 TEMPO BKN004  
LFRB 240330Z AUTO 24009KT 9999 OVC013 11/09 Q1020 TEMPO BKN004  
LFRB 240300Z AUTO 23008KT 9999 OVC018 11/09 Q1020 TEMPO BKN004  
LFRB 240230Z AUTO 22009KT 9999 OVC020 11/09 Q1020 TEMPO BKN004  
LFRB 240200Z AUTO 23008KT 9999 OVC020 11/09 Q1020 TEMPO BKN004  
LFRB 240130Z AUTO 22008KT 9999 OVC020 11/08 Q1020 TEMPO BKN004  
LFRB 240100Z AUTO 22007KT 9999 OVC021 11/08 Q1021 TEMPO BKN004  
LFRB 240030Z AUTO 23007KT 9999 OVC027 10/08 Q1021 TEMPO BKN004  
LFRB 240000Z AUTO 23007KT 200V260 9999 OVC026 11/08 Q1021 NOSIG 
LFRB 232330Z AUTO 23007KT 9999 OVC024 10/08 Q1021 NOSIG 
LFRB 232300Z AUTO 23007KT 9999 OVC023 10/08 Q1021 BECMG OVC008  
LFRB 232230Z AUTO 22006KT 9999 SCT025 09/07 Q1022 BECMG OVC008  
LFRB 232200Z AUTO 23005KT CAVOK 09/07 Q1022 BECMG OVC008
LFRB 232130Z AUTO 24004KT CAVOK 09/06 Q1022 BECMG OVC008
LFRB 232100Z AUTO 24005KT CAVOK 08/06 Q1022 BECMG OVC008
LFRB 232030Z AUTO 23006KT CAVOK 09/06 Q1022 BECMG OVC008
LFRB 232000Z AUTO 23006KT CAVOK 10/06 Q1021 NOSIG